JAL919 RJTT-ROAH
Flight info
| Callsign | JAL919 |
|---|---|
| Flight time | N/A |
| Altitude | 40000 |
| Route | LAXAS Y56 TOHME Y54 KOHWA Y12 AYANO Y128 LAXEL Y52 TONAR Y525 IHEYA |
| Aircraft | A359/H-SDE2E3GHIJ3J4J5LM1ORWXY/LB1D1 |
Departure
| Time | N/A |
|---|---|
| Airport | Tokyo Haneda International Airport (RJTT) |
Arrival
| Time | 2026-04-26 10:08 |
|---|---|
| Airport | Naha International Airport (ROAH) |
| Time | Latitude | Longitude | Altitude | Speed | Heading |
|---|---|---|---|---|---|
| 2026-04-26 09:22 | 30.35267 | 132.57354 | 40308 ft | 377 kts | 230° |
| 2026-04-26 09:22 | 30.33599 | 132.54962 | 39991 ft | 376 kts | 230° |
| 2026-04-26 09:23 | 30.30373 | 132.50319 | 39908 ft | 374 kts | 230° |
| 2026-04-26 09:23 | 30.27078 | 132.45584 | 39913 ft | 381 kts | 230° |
| 2026-04-26 09:24 | 30.23721 | 132.40769 | 39915 ft | 388 kts | 230° |
| 2026-04-26 09:24 | 30.20314 | 132.35891 | 39915 ft | 391 kts | 229° |
| 2026-04-26 09:25 | 30.16889 | 132.30992 | 39907 ft | 392 kts | 230° |
| 2026-04-26 09:25 | 30.13453 | 132.26086 | 39914 ft | 392 kts | 230° |
| 2026-04-26 09:26 | 30.10020 | 132.21188 | 39917 ft | 392 kts | 230° |
| 2026-04-26 09:26 | 30.06579 | 132.16292 | 39917 ft | 392 kts | 229° |
| 2026-04-26 09:27 | 30.03144 | 132.11404 | 39910 ft | 392 kts | 229° |
| 2026-04-26 09:27 | 29.99707 | 132.06516 | 39920 ft | 392 kts | 229° |
| 2026-04-26 09:28 | 29.96266 | 132.01629 | 39922 ft | 392 kts | 229° |
| 2026-04-26 09:28 | 29.92822 | 131.96747 | 39928 ft | 393 kts | 228° |
| 2026-04-26 09:29 | 29.89374 | 131.91869 | 39914 ft | 392 kts | 228° |
| 2026-04-26 09:29 | 29.85923 | 131.86987 | 39920 ft | 393 kts | 228° |
| 2026-04-26 09:30 | 29.82472 | 131.82109 | 39920 ft | 393 kts | 228° |
| 2026-04-26 09:30 | 29.78986 | 131.77266 | 39942 ft | 393 kts | 227° |
| 2026-04-26 09:31 | 29.75429 | 131.72484 | 39915 ft | 393 kts | 227° |
| 2026-04-26 09:31 | 29.71860 | 131.67693 | 39925 ft | 394 kts | 227° |
| 2026-04-26 09:32 | 29.68299 | 131.62893 | 39927 ft | 395 kts | 227° |
| 2026-04-26 09:32 | 29.64739 | 131.58090 | 39934 ft | 395 kts | 227° |
| 2026-04-26 09:33 | 29.61173 | 131.53284 | 39929 ft | 396 kts | 227° |
| 2026-04-26 09:33 | 29.57588 | 131.48459 | 39919 ft | 398 kts | 227° |
| 2026-04-26 09:34 | 29.53996 | 131.43630 | 39920 ft | 398 kts | 227° |
| 2026-04-26 09:34 | 29.50400 | 131.38801 | 39944 ft | 398 kts | 227° |
| 2026-04-26 09:35 | 29.46801 | 131.33974 | 39935 ft | 398 kts | 227° |
| 2026-04-26 09:35 | 29.43179 | 131.29124 | 39927 ft | 402 kts | 227° |
| 2026-04-26 09:36 | 29.39529 | 131.24242 | 39938 ft | 403 kts | 227° |
| 2026-04-26 09:36 | 29.35875 | 131.19359 | 39937 ft | 403 kts | 227° |
| 2026-04-26 09:37 | 29.32243 | 131.14510 | 39926 ft | 404 kts | 227° |
| 2026-04-26 09:37 | 29.28571 | 131.09615 | 39929 ft | 407 kts | 227° |
| 2026-04-26 09:38 | 29.24863 | 131.04680 | 39930 ft | 409 kts | 227° |
| 2026-04-26 09:38 | 29.21148 | 130.99738 | 39926 ft | 410 kts | 227° |
| 2026-04-26 09:39 | 29.17428 | 130.94796 | 39935 ft | 410 kts | 227° |
| 2026-04-26 09:39 | 29.13704 | 130.89857 | 39937 ft | 411 kts | 227° |
| 2026-04-26 09:40 | 29.09951 | 130.84886 | 39933 ft | 414 kts | 227° |
| 2026-04-26 09:40 | 29.06815 | 130.80736 | 39932 ft | 415 kts | 227° |
| 2026-04-26 09:41 | 29.03037 | 130.75740 | 39935 ft | 415 kts | 227° |
| 2026-04-26 09:41 | 28.99261 | 130.70753 | 39939 ft | 415 kts | 227° |
| 2026-04-26 09:42 | 28.95485 | 130.65773 | 39937 ft | 415 kts | 227° |
| 2026-04-26 09:42 | 28.91708 | 130.60799 | 39930 ft | 415 kts | 227° |
| 2026-04-26 09:43 | 28.87930 | 130.55827 | 39931 ft | 414 kts | 227° |
| 2026-04-26 09:43 | 28.84153 | 130.50864 | 39940 ft | 414 kts | 227° |
| 2026-04-26 09:44 | 28.80369 | 130.45898 | 39953 ft | 415 kts | 227° |
| 2026-04-26 09:44 | 28.76558 | 130.40902 | 39940 ft | 419 kts | 227° |
| 2026-04-26 09:45 | 28.72724 | 130.35884 | 39931 ft | 420 kts | 227° |
| 2026-04-26 09:45 | 28.68887 | 130.30866 | 39937 ft | 420 kts | 227° |
| 2026-04-26 09:46 | 28.65052 | 130.25858 | 39938 ft | 420 kts | 227° |
| 2026-04-26 09:46 | 28.61200 | 130.20832 | 39948 ft | 424 kts | 228° |
| 2026-04-26 09:47 | 28.57307 | 130.15760 | 39928 ft | 426 kts | 228° |
| 2026-04-26 09:47 | 28.52914 | 130.10045 | 39930 ft | 426 kts | 228° |
| 2026-04-26 09:48 | 28.45105 | 129.99905 | 39915 ft | 428 kts | 229° |
| 2026-04-26 09:48 | 28.37233 | 129.89705 | 39909 ft | 430 kts | 228° |
| 2026-04-26 09:49 | 28.29344 | 129.79511 | 39933 ft | 430 kts | 229° |
| 2026-04-26 09:49 | 28.21388 | 129.69253 | 39929 ft | 434 kts | 229° |
| 2026-04-26 09:50 | 28.13411 | 129.58994 | 39942 ft | 434 kts | 229° |
| 2026-04-26 09:50 | 28.05414 | 129.48734 | 39950 ft | 435 kts | 229° |
| 2026-04-26 09:51 | 27.97392 | 129.38468 | 39957 ft | 435 kts | 229° |
| 2026-04-26 09:51 | 27.89357 | 129.28209 | 39961 ft | 437 kts | 229° |
| 2026-04-26 09:52 | 27.81283 | 129.17927 | 39958 ft | 437 kts | 229° |
| 2026-04-26 09:52 | 27.69162 | 129.02543 | 39966 ft | 438 kts | 230° |
| 2026-04-26 09:53 | 27.61090 | 128.92333 | 39959 ft | 439 kts | 230° |
| 2026-04-26 09:53 | 27.52954 | 128.82065 | 39944 ft | 439 kts | 230° |
| 2026-04-26 09:54 | 27.44817 | 128.71804 | 39938 ft | 439 kts | 231° |
| 2026-04-26 09:54 | 27.38216 | 128.60340 | 39976 ft | 431 kts | 240° |
| 2026-04-26 09:55 | 27.32218 | 128.48864 | 39965 ft | 423 kts | 240° |
| 2026-04-26 09:55 | 27.29255 | 128.43239 | 39066 ft | 415 kts | 240° |
| 2026-04-26 09:55 | 27.26293 | 128.37633 | 37614 ft | 418 kts | 240° |
| 2026-04-26 09:56 | 27.23324 | 128.32020 | 36254 ft | 418 kts | 240° |
| 2026-04-26 09:56 | 27.20345 | 128.26397 | 34783 ft | 421 kts | 239° |
| 2026-04-26 09:56 | 27.17316 | 128.20689 | 33023 ft | 428 kts | 240° |
| 2026-04-26 09:56 | 27.11281 | 128.09344 | 29435 ft | 445 kts | 243° |
| 2026-04-26 09:57 | 27.04987 | 127.97535 | 26649 ft | 436 kts | 244° |
| 2026-04-26 09:57 | 26.94950 | 127.90140 | 23768 ft | 476 kts | 188° |
| 2026-04-26 09:57 | 26.81643 | 127.90814 | 20547 ft | 474 kts | 182° |
| 2026-04-26 09:57 | 26.68631 | 127.91237 | 17651 ft | 460 kts | 182° |
| 2026-04-26 09:58 | 26.56576 | 127.91610 | 14142 ft | 404 kts | 183° |
| 2026-04-26 09:58 | 26.45964 | 127.91917 | 11320 ft | 377 kts | 182° |
| 2026-04-26 09:58 | 26.43033 | 127.92004 | 11032 ft | 361 kts | 182° |
| 2026-04-26 09:58 | 26.40526 | 127.92038 | 10986 ft | 349 kts | 186° |
| 2026-04-26 09:59 | 26.38182 | 127.91524 | 10969 ft | 341 kts | 204° |
| 2026-04-26 09:59 | 26.36019 | 127.90516 | 10618 ft | 335 kts | 208° |
| 2026-04-26 09:59 | 26.33912 | 127.89424 | 9884 ft | 334 kts | 208° |
| 2026-04-26 09:59 | 26.31834 | 127.88340 | 9549 ft | 324 kts | 208° |
| 2026-04-26 10:00 | 26.29828 | 127.87305 | 9337 ft | 311 kts | 208° |
| 2026-04-26 10:00 | 26.27901 | 127.86315 | 9121 ft | 299 kts | 208° |
| 2026-04-26 10:00 | 26.26058 | 127.85372 | 8646 ft | 286 kts | 208° |
| 2026-04-26 10:00 | 26.24256 | 127.84448 | 7873 ft | 285 kts | 208° |
| 2026-04-26 10:01 | 26.22480 | 127.83539 | 7329 ft | 277 kts | 208° |
| 2026-04-26 10:01 | 26.20726 | 127.82642 | 6914 ft | 277 kts | 208° |
| 2026-04-26 10:01 | 26.18977 | 127.81748 | 6526 ft | 276 kts | 208° |
| 2026-04-26 10:01 | 26.17236 | 127.80859 | 6124 ft | 275 kts | 208° |
| 2026-04-26 10:02 | 26.15494 | 127.79970 | 5767 ft | 277 kts | 208° |
| 2026-04-26 10:02 | 26.13741 | 127.79078 | 5386 ft | 277 kts | 207° |
| 2026-04-26 10:02 | 26.11990 | 127.78187 | 4954 ft | 276 kts | 207° |
| 2026-04-26 10:02 | 26.10253 | 127.77303 | 4548 ft | 274 kts | 207° |
| 2026-04-26 10:03 | 26.08525 | 127.76424 | 4178 ft | 273 kts | 207° |
| 2026-04-26 10:03 | 26.06834 | 127.75486 | 3805 ft | 270 kts | 215° |
| 2026-04-26 10:03 | 26.05518 | 127.74054 | 3419 ft | 262 kts | 241° |
| 2026-04-26 10:03 | 26.04957 | 127.72202 | 3139 ft | 249 kts | 269° |
| 2026-04-26 10:04 | 26.04915 | 127.70319 | 2891 ft | 239 kts | 273° |
| 2026-04-26 10:04 | 26.04919 | 127.68503 | 2353 ft | 237 kts | 273° |
| 2026-04-26 10:04 | 26.05089 | 127.66768 | 2052 ft | 216 kts | 294° |
| 2026-04-26 10:04 | 26.05973 | 127.65551 | 1790 ft | 197 kts | 329° |
| 2026-04-26 10:05 | 26.07247 | 127.65184 | 1628 ft | 185 kts | 359° |
| 2026-04-26 10:05 | 26.08465 | 127.65181 | 1603 ft | 165 kts | 359° |
| 2026-04-26 10:05 | 26.09557 | 127.65153 | 1564 ft | 149 kts | 355° |
| 2026-04-26 10:05 | 26.10532 | 127.65098 | 1424 ft | 131 kts | 353° |
| 2026-04-26 10:06 | 26.11395 | 127.64891 | 1295 ft | 126 kts | 347° |
| 2026-04-26 10:06 | 26.12278 | 127.64887 | 1108 ft | 128 kts | 2° |
| 2026-04-26 10:06 | 26.13165 | 127.64906 | 952 ft | 127 kts | 355° |
| 2026-04-26 10:06 | 26.14044 | 127.64819 | 810 ft | 127 kts | 352° |
| 2026-04-26 10:07 | 26.14930 | 127.64797 | 667 ft | 129 kts | 356° |
| 2026-04-26 10:07 | 26.15833 | 127.64757 | 500 ft | 128 kts | 356° |
| 2026-04-26 10:07 | 26.16716 | 127.64721 | 355 ft | 127 kts | 358° |
| 2026-04-26 10:07 | 26.17601 | 127.64687 | 154 ft | 127 kts | 356° |
| 2026-04-26 10:08 | 26.18474 | 127.64646 | 35 ft | 121 kts | 355° |
| 2026-04-26 10:08 | 26.19244 | 127.64607 | 26 ft | 98 kts | 357° |
| 2026-04-26 10:08 | 26.19686 | 127.64583 | 23 ft | 28 kts | 358° |
| 2026-04-26 10:08 | 26.19873 | 127.64574 | 22 ft | 26 kts | 357° |
| 2026-04-26 10:09 | 26.20052 | 127.64565 | 23 ft | 26 kts | 358° |
| 2026-04-26 10:09 | 26.20228 | 127.64590 | 27 ft | 25 kts | 21° |
| 2026-04-26 10:09 | 26.20335 | 127.64651 | 25 ft | 15 kts | 50° |
| 2026-04-26 10:09 | 26.20349 | 127.64734 | 27 ft | 6 kts | 84° |
| 2026-04-26 10:10 | 26.20370 | 127.64778 | 28 ft | 8 kts | 50° |
| 2026-04-26 10:10 | 26.20407 | 127.64823 | 27 ft | 5 kts | 47° |
| 2026-04-26 10:10 | 26.20422 | 127.64842 | 27 ft | 1 kts | 47° |
| 2026-04-26 10:10 | 26.20429 | 127.64850 | 27 ft | 1 kts | 47° |
| 2026-04-26 10:11 | 26.20437 | 127.64860 | 27 ft | 0 kts | 47° |
| 2026-04-26 10:11 | 26.20437 | 127.64861 | 27 ft | 0 kts | 47° |